Time;durP1;ratioP1;P1;durP2;ratioP2;P2;SDS_P1;SDS_P2;PMS_P1;PMS_P2;Temp;Humidity;BMP_temperature;BMP_pressure;BME280_temperature;BME280_humidity;BME280_pressure;Samples;Min_cycle;Max_cycle;Signal;HPM_P1;HPM_P2
2023/02/22 00:01:06;;;;;;;5.00;2.63;;;;;;;18.22;51.61;100157.84;5091948;28;20052;-66
2023/02/22 00:03:34;;;;;;;5.78;2.58;;;;;;;18.22;51.70;100168.63;5091876;28;20052;-66
2023/02/22 00:06:05;;;;;;;6.22;3.10;;;;;;;18.21;51.47;100171.50;5091881;28;20087;-66
2023/02/22 00:08:36;;;;;;;8.18;3.35;;;;;;;18.19;51.95;100176.19;5091927;28;20501;-66
2023/02/22 00:11:07;;;;;;;6.65;2.70;;;;;;;18.14;51.47;100165.78;5091682;28;20115;-66
2023/02/22 00:13:36;;;;;;;5.90;2.90;;;;;;;18.13;51.55;100169.50;5091747;28;20040;-66
2023/02/22 00:16:05;;;;;;;7.40;2.50;;;;;;;18.12;51.44;100169.66;5091589;28;20481;-67
2023/02/22 00:18:33;;;;;;;8.98;2.70;;;;;;;18.10;51.71;100174.34;5094638;28;20109;-67
2023/02/22 00:21:01;;;;;;;6.18;2.63;;;;;;;18.07;51.65;100175.47;5095910;28;20447;-67
2023/02/22 00:23:31;;;;;;;6.13;3.08;;;;;;;18.03;51.75;100177.59;5095732;28;20051;-67
2023/02/22 00:26:01;;;;;;;7.18;2.50;;;;;;;18.04;51.46;100186.53;5095614;28;20048;-67
2023/02/22 00:28:29;;;;;;;6.20;2.83;;;;;;;18.01;51.44;100182.28;5095670;28;20127;-67
2023/02/22 00:30:58;;;;;;;5.28;2.45;;;;;;;17.99;51.25;100184.28;5095535;28;20050;-65
2023/02/22 00:33:26;;;;;;;4.95;2.50;;;;;;;17.98;51.31;100181.72;5095546;28;20052;-65
2023/02/22 00:35:54;;;;;;;6.68;2.40;;;;;;;17.96;51.20;100181.03;5095544;28;20179;-67
2023/02/22 00:38:26;;;;;;;6.20;2.75;;;;;;;17.91;50.96;100175.19;5095340;28;20550;-67
2023/02/22 00:40:54;;;;;;;6.05;2.63;;;;;;;17.91;50.89;100185.97;5095476;28;20082;-66
2023/02/22 00:43:24;;;;;;;6.43;2.53;;;;;;;17.90;50.90;100189.66;5095293;28;20134;-68
2023/02/22 00:45:52;;;;;;;7.95;2.72;;;;;;;17.89;51.07;100196.06;5095314;28;20047;-67
2023/02/22 00:48:21;;;;;;;5.15;2.20;;;;;;;17.87;51.12;100196.22;5095265;28;20048;-66
2023/02/22 00:50:54;;;;;;;6.82;2.63;;;;;;;17.85;50.89;100189.22;5095359;28;20093;-67
2023/02/22 00:53:23;;;;;;;5.45;2.30;;;;;;;17.81;50.76;100196.75;5095270;28;20040;-66
2023/02/22 00:55:51;;;;;;;5.07;2.53;;;;;;;17.81;51.04;100193.22;5095087;28;20135;-68
2023/02/22 00:58:20;;;;;;;5.22;2.58;;;;;;;17.78;50.83;100190.81;5095042;28;20048;-66
2023/02/22 01:00:50;;;;;;;3.75;2.38;;;;;;;17.78;50.78;100194.34;5095276;28;20411;-66
2023/02/22 01:03:20;;;;;;;4.65;2.20;;;;;;;17.74;51.10;100182.97;5095063;28;20052;-66
2023/02/22 01:05:49;;;;;;;4.78;2.50;;;;;;;17.72;50.94;100182.25;5094910;28;20052;-67
2023/02/22 01:08:17;;;;;;;5.28;2.42;;;;;;;17.69;50.96;100182.53;5094909;28;20123;-67
2023/02/22 01:10:46;;;;;;;4.30;2.60;;;;;;;17.70;50.68;100181.56;5094841;28;20400;-67
2023/02/22 01:13:17;;;;;;;4.15;2.28;;;;;;;17.68;50.57;100179.97;5095073;28;20048;-67
2023/02/22 01:15:46;;;;;;;6.20;2.13;;;;;;;17.66;50.65;100182.81;5094850;28;20434;-66
2023/02/22 01:18:16;;;;;;;6.55;2.20;;;;;;;17.62;50.75;100170.56;5094624;28;20573;-67
2023/02/22 01:20:46;;;;;;;6.63;2.40;;;;;;;17.60;50.53;100177.97;5094661;28;20761;-66
2023/02/22 01:23:16;;;;;;;5.53;2.53;;;;;;;17.60;50.51;100183.34;5094593;28;20044;-67
2023/02/22 01:25:44;;;;;;;4.28;2.13;;;;;;;17.59;50.37;100181.66;5094764;28;20405;-65
2023/02/22 01:28:14;;;;;;;6.65;2.42;;;;;;;17.57;50.29;100185.47;5094435;28;20044;-67
2023/02/22 01:30:42;;;;;;;5.07;2.17;;;;;;;17.55;50.56;100174.81;5093738;28;20044;-66
2023/02/22 01:33:11;;;;;;;4.22;2.10;;;;;;;17.54;50.57;100183.03;5094817;28;20404;-66
2023/02/22 01:35:45;;;;;;;4.47;2.00;;;;;;;17.51;50.55;100172.53;5094472;28;20075;-65
2023/02/22 01:38:14;;;;;;;;;;;;;;;17.50;50.63;100173.53;5094597;28;20083;-65
2023/02/22 01:40:46;;;;;;;6.38;2.30;;;;;;;17.48;50.64;100168.28;5094566;28;19927;-66
2023/02/22 01:43:18;;;;;;;4.33;2.20;;;;;;;17.46;50.69;100176.50;5094311;28;20377;-65
2023/02/22 01:45:53;;;;;;;4.83;2.33;;;;;;;17.44;50.93;100172.22;5094284;28;20048;-67
2023/02/22 01:48:26;;;;;;;4.57;1.90;;;;;;;17.43;51.03;100170.53;5094114;28;20109;-66
2023/02/22 01:51:02;;;;;;;4.00;2.28;;;;;;;17.41;50.99;100167.97;5094029;28;20515;-67
2023/02/22 01:53:35;;;;;;;4.55;2.22;;;;;;;17.39;51.00;100177.19;5094060;28;20123;-66
2023/02/22 01:56:04;;;;;;;5.13;2.22;;;;;;;17.37;51.14;100168.38;5094008;28;20051;-67
2023/02/22 01:58:35;;;;;;;5.53;2.42;;;;;;;17.36;51.10;100172.06;5093785;28;20109;-67
2023/02/22 02:01:05;;;;;;;5.43;1.92;;;;;;;17.36;51.17;100172.06;5093782;28;20040;-66
2023/02/22 02:03:36;;;;;;;3.50;1.95;;;;;;;17.33;51.24;100172.34;5093959;28;20131;-65
2023/02/22 02:06:10;;;;;;;5.88;2.30;;;;;;;17.31;51.11;100163.56;5093718;28;20119;-66
2023/02/22 02:08:48;;;;;;;5.05;1.90;;;;;;;17.30;51.17;100170.78;5093853;28;20050;-66
2023/02/22 02:11:20;;;;;;;4.60;2.40;;;;;;;17.29;51.23;100168.22;5093754;28;20161;-66
2023/02/22 02:13:50;;;;;;;4.45;2.13;;;;;;;17.28;51.10;100166.53;5093666;28;20548;-66
2023/02/22 02:16:20;;;;;;;4.53;2.30;;;;;;;17.27;50.98;100170.19;5093611;28;20094;-65
2023/02/22 02:18:49;;;;;;;3.75;1.92;;;;;;;17.25;51.15;100166.78;5093512;28;20044;-65
2023/02/22 02:21:54;;;;;;;4.10;2.13;;;;;;;17.25;51.01;100169.47;5093434;28;20051;-66
2023/02/22 02:24:56;;;;;;;3.83;1.80;;;;;;;17.23;51.34;100168.78;5083597;28;20060;-66
2023/02/22 02:27:26;;;;;;;4.28;2.00;;;;;;;17.23;51.52;100171.47;5093429;28;20040;-66
2023/02/22 02:30:51;;;;;;;4.18;2.28;;;;;;;17.17;51.40;100154.84;5093309;28;20074;-66
2023/02/22 02:33:29;;;;;;;3.70;2.10;;;;;;;17.18;51.45;100166.50;4986144;28;20042;-66
2023/02/22 02:36:03;;;;;;;3.80;2.20;;;;;;;17.14;51.40;100159.66;5093189;28;20055;-65
2023/02/22 02:38:38;;;;;;;4.32;2.17;;;;;;;17.15;51.52;100166.75;5092959;28;20063;-67
2023/02/22 02:41:11;;;;;;;4.07;1.83;;;;;;;17.14;51.65;100163.19;5092872;28;20157;-65
2023/02/22 02:43:46;;;;;;;3.70;2.07;;;;;;;17.13;51.65;100166.91;5093202;28;20127;-66
2023/02/22 02:46:21;;;;;;;4.22;2.05;;;;;;;17.10;51.75;100167.19;5092955;28;20342;-67
2023/02/22 02:48:55;;;;;;;4.13;2.15;;;;;;;17.11;51.75;100168.88;5092936;28;20040;-65
2023/02/22 02:51:28;;;;;;;4.95;2.05;;;;;;;17.12;51.64;100173.28;5092880;28;20056;-66
2023/02/22 02:53:57;;;;;;;3.70;2.08;;;;;;;17.10;51.90;100169.88;5092844;28;20127;-66
2023/02/22 02:56:26;;;;;;;5.57;2.40;;;;;;;17.09;51.76;100173.56;5092926;28;20052;-65
2023/02/22 02:58:54;;;;;;;3.72;1.90;;;;;;;17.07;51.63;100167.44;5092738;28;20404;-67
2023/02/22 03:01:39;;;;;;;6.60;2.10;;;;;;;17.06;51.52;100172.94;5092903;28;20401;-67
2023/02/22 03:04:27;;;;;;;5.57;2.10;;;;;;;17.06;51.52;100170.25;5092637;28;20052;-66
2023/02/22 03:07:08;;;;;;;5.68;1.90;;;;;;;17.04;51.37;100173.09;5092870;28;20048;-66
2023/02/22 03:09:53;;;;;;;3.65;1.85;;;;;;;17.03;51.57;100174.09;5092777;28;20052;-66
2023/02/22 03:12:37;;;;;;;4.63;1.95;;;;;;;17.03;51.42;100168.69;5092657;28;20050;-67
2023/02/22 03:15:20;;;;;;;3.58;1.90;;;;;;;17.01;51.62;100170.69;5092505;28;20569;-67
2023/02/22 03:17:54;;;;;;;7.35;1.90;;;;;;;16.99;51.60;100164.59;5092264;28;20044;-66
2023/02/22 03:20:33;;;;;;;3.03;1.80;;;;;;;17.00;51.57;100162.75;5092370;28;20054;-66
2023/02/22 03:23:06;;;;;;;3.95;1.80;;;;;;;16.99;51.61;100171.81;5092311;28;20044;-66
2023/02/22 03:25:38;;;;;;;;;;;;;;;16.98;51.60;100165.53;5092754;28;20072;-66
2023/02/22 03:28:11;;;;;;;4.38;2.00;;;;;;;16.97;51.64;100173.75;5092389;28;19948;-66
2023/02/22 03:30:45;;;;;;;3.22;1.85;;;;;;;16.96;51.76;100174.75;5092273;28;20412;-65
2023/02/22 03:33:19;;;;;;;3.38;2.08;;;;;;;16.93;51.52;100167.81;5092277;28;20048;-66
2023/02/22 03:35:55;;;;;;;3.80;2.00;;;;;;;16.95;51.52;100176.59;5092251;28;20044;-67
2023/02/22 03:38:27;;;;;;;3.92;1.92;;;;;;;16.94;51.54;100171.34;5092098;28;20040;-66
2023/02/22 03:41:01;;;;;;;4.25;1.98;;;;;;;16.93;51.61;100178.59;5092070;28;20469;-66
2023/02/22 03:43:32;;;;;;;3.67;1.90;;;;;;;16.92;51.64;100182.25;5092146;28;20043;-65
2023/02/22 03:46:03;;;;;;;3.63;1.80;;;;;;;16.89;51.57;100171.78;5091940;28;20055;-65
2023/02/22 03:48:38;;;;;;;4.18;1.83;;;;;;;16.91;51.55;100172.47;5092216;28;20048;-65
2023/02/22 03:51:08;;;;;;;4.18;1.98;;;;;;;16.90;51.61;100176.16;5091885;28;20040;-65
2023/02/22 03:53:36;;;;;;;4.00;2.22;;;;;;;16.90;51.76;100180.69;5091440;28;20048;-66
2023/02/22 03:56:09;;;;;;;4.28;2.17;;;;;;;16.86;51.84;100182.78;5091755;28;20083;-66
2023/02/22 03:58:42;;;;;;;3.30;1.83;;;;;;;16.87;51.51;100195.28;5092047;28;20052;-67
2023/02/22 04:01:12;;;;;;;4.72;2.20;;;;;;;16.86;51.76;100188.19;5091999;28;20052;-65
2023/02/22 04:03:41;;;;;;;4.22;2.08;;;;;;;16.85;51.78;100191.88;5091982;28;20036;-65
2023/02/22 04:06:10;;;;;;;5.30;1.98;;;;;;;16.83;51.81;100185.75;5091783;28;20052;-67
2023/02/22 04:08:38;;;;;;;4.20;1.92;;;;;;;16.83;51.50;100205.47;5091761;28;20044;-65
2023/02/22 04:11:07;;;;;;;2.97;1.85;;;;;;;16.84;51.65;100200.94;5091830;28;20443;-67
2023/02/22 04:13:35;;;;;;;4.75;2.30;;;;;;;16.81;51.66;100201.22;5091916;28;20056;-65
2023/02/22 04:16:03;;;;;;;4.53;2.00;;;;;;;16.81;51.55;100202.06;5091866;28;20040;-65
2023/02/22 04:18:31;;;;;;;4.38;1.92;;;;;;;16.82;51.71;100192.13;5091757;28;20107;-65
2023/02/22 04:20:59;;;;;;;4.65;2.20;;;;;;;16.81;51.60;100196.69;5091817;28;20044;-65
2023/02/22 04:23:29;;;;;;;4.57;2.22;;;;;;;16.79;51.67;100190.56;5091809;28;20046;-65
2023/02/22 04:25:57;;;;;;;4.15;1.95;;;;;;;16.77;51.63;100195.22;5091553;28;20539;-66
2023/02/22 04:28:25;;;;;;;4.63;1.85;;;;;;;16.79;51.65;100197.78;5091792;28;20457;-66
2023/02/22 04:30:53;;;;;;;4.95;2.00;;;;;;;16.78;51.77;100198.75;5091788;28;20131;-65
2023/02/22 04:33:21;;;;;;;3.33;1.60;;;;;;;16.77;51.68;100188.97;5092104;28;20048;-65
2023/02/22 04:35:50;;;;;;;4.45;2.00;;;;;;;16.77;51.68;100188.97;5091878;28;20476;-65
2023/02/22 04:38:18;;;;;;;4.28;1.90;;;;;;;16.76;51.76;100192.66;5092063;28;20106;-65
2023/02/22 04:40:49;;;;;;;5.75;1.90;;;;;;;16.74;51.74;100190.09;5093401;28;20408;-66
2023/02/22 04:43:17;;;;;;;3.90;2.20;;;;;;;16.74;51.80;100190.09;5095259;28;20048;-67
2023/02/22 04:45:45;;;;;;;3.25;1.75;;;;;;;16.72;51.64;100188.53;5094587;28;20044;-67
2023/02/22 04:48:13;;;;;;;4.80;2.17;;;;;;;16.74;51.87;100200.03;5091730;28;20055;-66
2023/02/22 04:50:42;;;;;;;5.35;2.13;;;;;;;16.72;51.77;100202.84;5091703;28;20079;-66
2023/02/22 04:53:10;;;;;;;5.43;2.30;;;;;;;16.70;51.82;100194.06;5091526;28;20044;-67
2023/02/22 04:55:38;;;;;;;3.42;1.98;;;;;;;16.71;51.91;100213.78;5091828;28;20051;-67
2023/02/22 04:58:08;;;;;;;4.32;2.17;;;;;;;16.71;51.89;100208.38;5091256;28;20052;-67
2023/02/22 05:00:37;;;;;;;4.38;2.17;;;;;;;16.70;51.77;100209.38;5091051;28;20097;-67
2023/02/22 05:03:06;;;;;;;3.60;1.73;;;;;;;16.69;51.80;100208.50;5091669;28;20051;-66
2023/02/22 05:05:34;;;;;;;3.20;1.85;;;;;;;16.68;51.70;100206.78;5095026;28;20047;-66
2023/02/22 05:08:02;;;;;;;3.85;1.90;;;;;;;16.68;51.74;100205.91;5094885;28;20048;-66
2023/02/22 05:10:30;;;;;;;4.20;2.22;;;;;;;16.67;51.66;100210.44;5094778;28;20542;-67
2023/02/22 05:13:01;;;;;;;4.38;2.33;;;;;;;16.66;51.77;100199.81;5094777;28;20119;-66
2023/02/22 05:15:32;;;;;;;4.35;2.10;;;;;;;16.64;51.77;100199.09;5094623;28;20048;-66
2023/02/22 05:18:00;;;;;;;3.67;2.28;;;;;;;16.66;51.65;100207.88;5093599;28;20489;-66
2023/02/22 05:20:33;;;;;;;4.10;2.20;;;;;;;16.64;51.81;100213.41;5094620;28;20048;-66
2023/02/22 05:23:04;;;;;;;3.67;2.00;;;;;;;16.64;51.72;100221.47;5094777;28;20620;-66
2023/02/22 05:25:33;;;;;;;4.88;2.05;;;;;;;16.63;51.85;100214.38;5094622;28;20063;-66
2023/02/22 05:28:04;;;;;;;3.65;2.08;;;;;;;16.60;51.61;100215.53;5094508;28;20047;-66
2023/02/22 05:30:38;;;;;;;4.28;2.30;;;;;;;16.62;51.56;100219.91;5094727;28;20126;-66
2023/02/22 05:33:07;;;;;;;3.33;1.90;;;;;;;16.58;51.60;100217.47;5094520;28;20044;-66
2023/02/22 05:35:35;;;;;;;5.15;2.35;;;;;;;16.58;51.67;100222.84;5094446;28;20052;-66
2023/02/22 05:38:05;;;;;;;3.67;2.20;;;;;;;16.59;51.71;100229.09;5094084;28;20056;-66
2023/02/22 05:40:35;;;;;;;4.43;1.98;;;;;;;16.56;51.70;100224.81;5094347;28;20052;-66
2023/02/22 05:43:05;;;;;;;3.88;2.30;;;;;;;16.57;51.76;100231.06;5094110;28;20489;-66
2023/02/22 05:45:35;;;;;;;4.10;2.22;;;;;;;16.57;51.62;100231.91;5094210;28;20048;-66
2023/02/22 05:48:05;;;;;;;4.30;2.35;;;;;;;16.56;51.55;100232.06;5094178;28;20392;-66
2023/02/22 05:50:34;;;;;;;3.90;2.25;;;;;;;16.54;51.37;100242.97;5094080;28;20550;-66
2023/02/22 05:53:02;;;;;;;4.82;2.08;;;;;;;16.54;51.43;100248.34;5093874;28;20067;-67
2023/02/22 05:55:32;;;;;;;4.03;2.30;;;;;;;16.54;51.66;100253.72;5093988;28;20055;-65
2023/02/22 05:58:00;;;;;;;4.82;2.00;;;;;;;16.53;51.54;100251.16;5093965;28;20489;-65
2023/02/22 06:00:30;;;;;;;4.20;2.10;;;;;;;16.52;51.60;100265.63;5093757;28;20052;-66
2023/02/22 06:03:02;;;;;;;5.25;2.45;;;;;;;16.52;51.59;100269.16;5093713;28;20050;-66
2023/02/22 06:05:30;;;;;;;4.45;2.17;;;;;;;16.51;51.69;100269.31;5093795;28;20488;-66
2023/02/22 06:08:02;;;;;;;3.25;1.80;;;;;;;16.50;51.69;100276.53;5093825;28;20040;-66
2023/02/22 06:10:31;;;;;;;4.45;2.17;;;;;;;16.47;51.75;100267.84;5107794;27;20046;-65
2023/02/22 06:13:01;;;;;;;3.35;2.00;;;;;;;16.50;51.61;100272.94;5131755;27;20047;-67
2023/02/22 06:15:30;;;;;;;3.42;2.05;;;;;;;16.48;51.75;100267.69;5112419;28;20448;-67
2023/02/22 06:17:59;;;;;;;4.97;2.58;;;;;;;16.46;51.61;100271.50;5104611;28;20123;-67
2023/02/22 06:20:32;;;;;;;4.70;2.35;;;;;;;16.45;51.62;100276.03;5093578;28;20054;-67
2023/02/22 06:23:00;;;;;;;4.88;2.28;;;;;;;16.45;51.63;100281.44;5093355;28;20048;-67
2023/02/22 06:25:31;;;;;;;3.97;2.08;;;;;;;16.45;51.71;100286.81;5093307;28;20044;-66
2023/02/22 06:27:59;;;;;;;8.25;2.60;;;;;;;16.45;51.74;100292.19;5111161;28;20047;-66
2023/02/22 06:30:29;;;;;;;3.28;1.98;;;;;;;16.45;51.59;100292.19;5113420;28;20075;-67
2023/02/22 06:32:57;;;;;;;4.22;2.10;;;;;;;16.45;51.70;100297.59;5113694;28;20071;-67
2023/02/22 06:35:26;;;;;;;4.45;2.20;;;;;;;16.45;51.73;100296.72;5113479;28;20075;-67
2023/02/22 06:37:54;;;;;;;4.07;2.28;;;;;;;16.45;51.65;100294.03;5113227;28;20109;-67
2023/02/22 06:40:28;;;;;;;4.40;2.40;;;;;;;16.44;51.83;100292.31;5097716;28;20072;-67
2023/02/22 06:42:57;;;;;;;6.03;2.55;;;;;;;16.45;51.64;100294.03;5093102;28;20047;-67
2023/02/22 06:45:26;;;;;;;4.07;2.13;;;;;;;16.44;51.79;100293.19;5105035;27;20476;-67
2023/02/22 06:47:54;;;;;;;5.28;2.35;;;;;;;16.44;51.96;100292.31;5129195;27;20122;-67
2023/02/22 06:50:25;;;;;;;4.18;2.47;;;;;;;16.42;51.89;100292.47;5133859;27;20066;-67
2023/02/22 06:52:55;;;;;;;4.85;2.28;;;;;;;16.44;52.40;100295.88;5129145;27;20488;-67
2023/02/22 06:55:26;;;;;;;4.20;2.30;;;;;;;16.45;52.18;100308.34;5102854;28;20043;-67
2023/02/22 06:57:54;;;;;;;5.45;2.40;;;;;;;16.45;52.23;100302.13;5093077;28;20130;-68
2023/02/22 07:00:25;;;;;;;6.72;2.53;;;;;;;16.44;52.27;100301.25;5092661;28;20093;-68
2023/02/22 07:02:54;;;;;;;5.57;2.50;;;;;;;16.42;52.80;100297.00;5092613;28;20054;-67
2023/02/22 07:05:24;;;;;;;4.47;2.30;;;;;;;16.44;52.77;100298.56;5093030;28;20089;-67
2023/02/22 07:08:01;;;;;;;7.65;2.72;;;;;;;16.44;53.13;100300.41;5092687;28;20052;-67
2023/02/22 07:10:32;;;;;;;4.65;2.20;;;;;;;16.44;53.09;100301.25;5092539;28;20044;-70
2023/02/22 07:13:00;;;;;;;4.85;2.65;;;;;;;16.45;53.11;100302.97;5092323;28;20044;-68
2023/02/22 07:15:30;;;;;;;4.35;2.47;;;;;;;16.45;53.29;100297.59;5092332;28;20054;-67
2023/02/22 07:17:58;;;;;;;7.40;2.97;;;;;;;16.46;53.30;100304.66;5094011;28;20109;-67
2023/02/22 07:20:29;;;;;;;10.10;4.90;;;;;;;16.46;53.52;100304.66;5092393;28;20075;-66
2023/02/22 07:22:59;;;;;;;17.63;8.57;;;;;;;16.46;54.00;100309.19;5092131;28;20055;-65
2023/02/22 07:25:27;;;;;;;16.83;8.27;;;;;;;16.45;53.90;100300.28;5092589;28;20068;-65
2023/02/22 07:27:55;;;;;;;17.83;8.75;;;;;;;16.47;53.87;100306.38;5091345;28;20048;-65
2023/02/22 07:30:26;;;;;;;13.35;7.60;;;;;;;16.47;53.74;100301.00;5092456;28;20135;-66
2023/02/22 07:32:55;;;;;;;13.73;7.82;;;;;;;16.48;54.34;100291.06;5092130;28;20044;-65
2023/02/22 07:35:26;;;;;;;16.38;7.75;;;;;;;16.49;54.43;100300.84;5092063;28;20050;-65
2023/02/22 07:37:55;;;;;;;15.50;7.45;;;;;;;16.48;54.66;100297.31;5092223;28;20413;-65
2023/02/22 07:40:26;;;;;;;15.48;7.10;;;;;;;16.48;54.60;100297.31;5092255;28;20067;-66
2023/02/22 07:42:56;;;;;;;13.93;7.25;;;;;;;16.47;54.53;100292.91;5092078;28;20055;-66
2023/02/22 07:45:28;;;;;;;12.95;6.75;;;;;;;16.48;54.60;100297.31;5092024;28;20089;-64
2023/02/22 07:47:56;;;;;;;15.32;6.28;;;;;;;16.49;54.63;100301.72;5092011;28;20051;-65
2023/02/22 07:50:26;;;;;;;14.70;6.50;;;;;;;16.49;55.02;100299.00;5091742;28;20044;-66
2023/02/22 07:52:56;;;;;;;11.00;5.97;;;;;;;16.50;54.68;100299.88;5091737;28;20443;-62
2023/02/22 07:55:27;;;;;;;12.43;6.05;;;;;;;16.51;54.87;100302.47;5090119;28;20044;-66
2023/02/22 07:57:58;;;;;;;11.05;5.90;;;;;;;16.52;54.64;100303.31;5091871;28;20059;-66
2023/02/22 08:00:29;;;;;;;12.88;6.18;;;;;;;16.50;55.21;100306.13;5091767;28;20097;-66
2023/02/22 08:02:59;;;;;;;13.13;5.90;;;;;;;16.51;54.84;100294.38;5090112;28;20138;-66
2023/02/22 08:05:29;;;;;;;15.02;5.80;;;;;;;16.54;54.88;100306.72;5091242;28;20665;-65
2023/02/22 08:07:57;;;;;;;11.70;5.50;;;;;;;16.54;54.82;100302.19;5091909;28;20131;-65
2023/02/22 08:10:27;;;;;;;13.40;6.13;;;;;;;16.54;54.67;100291.41;5090040;28;20101;-66
2023/02/22 08:12:55;;;;;;;12.23;5.88;;;;;;;16.52;54.87;100296.09;5091616;28;20077;-66
2023/02/22 08:15:27;;;;;;;12.38;5.47;;;;;;;16.55;55.18;100301.19;5091604;28;20101;-65
2023/02/22 08:17:56;;;;;;;13.63;5.80;;;;;;;16.56;55.19;100304.75;5091776;28;20492;-65
2023/02/22 08:20:25;;;;;;;10.57;5.53;;;;;;;16.56;55.11;100311.00;5091433;28;20066;-65
2023/02/22 08:22:53;;;;;;;11.15;5.00;;;;;;;16.57;54.87;100306.47;5091460;28;20054;-66
2023/02/22 08:25:24;;;;;;;9.85;5.40;;;;;;;16.57;54.88;100301.91;5092052;28;20051;-66
2023/02/22 08:27:59;;;;;;;9.85;4.75;;;;;;;16.58;54.75;100309.00;5091561;28;20047;-66
2023/02/22 08:30:29;;;;;;;12.88;5.28;;;;;;;16.59;55.15;100316.09;5091527;28;20044;-66
2023/02/22 08:33:00;;;;;;;13.70;5.00;;;;;;;16.56;55.16;100305.59;5091317;28;20063;-66
2023/02/22 08:35:30;;;;;;;11.60;5.00;;;;;;;16.59;55.09;100310.72;5091323;28;20158;-66
2023/02/22 08:38:01;;;;;;;11.57;5.00;;;;;;;16.62;55.34;100308.78;5091514;28;20052;-66
2023/02/22 08:40:31;;;;;;;10.65;5.40;;;;;;;16.62;55.18;100309.63;5095346;28;20046;-67
2023/02/22 08:43:01;;;;;;;10.98;4.82;;;;;;;16.63;55.14;100315.88;5095355;28;20516;-66
2023/02/22 08:45:30;;;;;;;11.90;5.25;;;;;;;16.64;55.12;100310.34;5095451;28;20102;-66
2023/02/22 08:47:58;;;;;;;9.77;4.80;;;;;;;16.65;54.97;100297.75;5095163;28;20101;-66
2023/02/22 08:50:28;;;;;;;10.23;4.82;;;;;;;16.66;54.92;100312.91;5095065;28;20040;-65
2023/02/22 08:52:59;;;;;;;14.88;5.43;;;;;;;16.65;54.88;100306.66;5094986;28;20490;-65
2023/02/22 08:55:30;;;;;;;11.35;4.82;;;;;;;16.66;55.08;100310.22;5095196;28;20446;-66
2023/02/22 08:58:01;;;;;;;12.43;4.93;;;;;;;16.68;55.20;100310.94;5094853;28;20135;-66
2023/02/22 09:00:32;;;;;;;9.05;4.25;;;;;;;16.69;54.70;100315.38;5094901;28;20048;-66
2023/02/22 09:03:01;;;;;;;8.80;4.43;;;;;;;16.70;54.83;100315.25;5094856;28;20048;-66
2023/02/22 09:05:31;;;;;;;9.85;4.28;;;;;;;16.70;54.91;100315.25;5095108;28;20074;-66
2023/02/22 09:08:00;;;;;;;11.27;4.82;;;;;;;16.72;55.02;100304.34;5094890;28;20040;-65
2023/02/22 09:10:30;;;;;;;10.65;4.80;;;;;;;16.71;54.67;100311.59;5094762;28;20051;-66
2023/02/22 09:13:01;;;;;;;9.73;4.60;;;;;;;16.71;55.11;100314.28;5094674;28;20041;-66
2023/02/22 09:15:30;;;;;;;8.00;4.20;;;;;;;16.74;55.02;100313.16;5094614;28;20044;-66
2023/02/22 09:17:58;;;;;;;10.93;4.55;;;;;;;16.74;54.86;100308.63;5094589;28;20179;-66
2023/02/22 09:20:28;;;;;;;8.18;4.32;;;;;;;16.74;54.96;100302.38;5094558;28;20048;-66
2023/02/22 09:22:57;;;;;;;11.73;4.88;;;;;;;16.76;54.99;100305.78;5094353;28;20047;-66
2023/02/22 09:25:26;;;;;;;8.63;4.45;;;;;;;16.75;55.09;100304.94;5094495;28;20058;-65
2023/02/22 09:27:54;;;;;;;8.77;4.45;;;;;;;16.79;54.88;100310.91;5094383;28;20492;-65
2023/02/22 09:30:30;;;;;;;10.25;4.43;;;;;;;16.79;54.84;100311.78;5094240;28;20109;-66
2023/02/22 09:33:01;;;;;;;8.73;3.97;;;;;;;16.80;54.88;100307.25;5094179;28;20068;-66
2023/02/22 09:35:34;;;;;;;9.82;4.53;;;;;;;16.79;54.70;100297.44;5094186;28;20442;-65
2023/02/22 09:38:06;;;;;;;8.75;4.80;;;;;;;16.83;54.71;100306.97;5094101;28;20056;-66
2023/02/22 09:40:43;;;;;;;9.32;4.63;;;;;;;16.83;54.71;100302.44;5094162;28;20056;-67
2023/02/22 09:43:36;;;;;;;8.70;4.57;;;;;;;16.86;54.72;100306.72;5094130;28;20064;-66
2023/02/22 09:46:17;;;;;;;8.15;4.00;;;;;;;16.87;54.51;100303.03;5094036;28;20040;-66
2023/02/22 09:48:57;;;;;;;7.75;4.25;;;;;;;16.88;54.65;100296.66;5093997;28;20059;-65
2023/02/22 09:51:30;;;;;;;8.63;4.28;;;;;;;16.89;54.74;100303.78;5093071;28;20044;-65
2023/02/22 09:54:01;;;;;;;8.57;4.40;;;;;;;16.91;54.82;100304.50;5094242;28;20058;-66
2023/02/22 09:56:32;;;;;;;9.70;4.60;;;;;;;16.91;54.67;100299.09;5093984;28;20421;-66
2023/02/22 09:59:03;;;;;;;8.23;4.50;;;;;;;16.94;54.64;100298.81;5093987;28;20102;-65
2023/02/22 10:01:38;;;;;;;7.90;4.30;;;;;;;16.95;54.62;100299.69;5093695;28;20047;-67
2023/02/22 10:04:12;;;;;;;8.25;4.18;;;;;;;16.97;54.49;100303.94;5093742;28;20151;-66
2023/02/22 10:06:51;;;;;;;6.80;4.05;;;;;;;17.00;54.37;100298.31;5094016;28;20052;-65
2023/02/22 10:09:20;;;;;;;8.98;4.13;;;;;;;16.99;54.24;100295.75;5093852;28;20051;-66
2023/02/22 10:11:54;;;;;;;8.70;4.10;;;;;;;17.01;54.31;100294.63;5093662;28;20059;-65
2023/02/22 10:14:48;;;;;;;7.47;3.95;;;;;;;16.97;54.42;100292.31;5093892;28;20054;-65
2023/02/22 10:17:29;;;;;;;7.70;3.90;;;;;;;17.02;54.40;100288.25;5093391;28;20048;-65
2023/02/22 10:20:14;;;;;;;8.70;4.28;;;;;;;17.04;54.30;100294.34;5093592;28;20291;-66
2023/02/22 10:22:56;;;;;;;9.38;4.22;;;;;;;17.06;54.30;100288.81;5092953;28;20048;-66
2023/02/22 10:25:28;;;;;;;8.40;4.20;;;;;;;17.08;54.26;100290.44;5093355;28;20044;-65
2023/02/22 10:28:02;;;;;;;9.27;4.65;;;;;;;17.10;54.18;100283.06;5093307;28;20047;-65
2023/02/22 10:30:35;;;;;;;8.52;4.10;;;;;;;17.15;54.34;100270.00;5093209;28;20543;-65
2023/02/22 10:33:12;;;;;;;7.22;3.85;;;;;;;17.22;54.02;100270.34;5093026;28;20078;-65
2023/02/22 10:35:45;;;;;;;8.88;4.30;;;;;;;17.29;54.09;100271.53;5092942;28;20048;-65
2023/02/22 10:38:19;;;;;;;7.72;4.18;;;;;;;17.34;54.10;100265.72;5092875;28;20054;-65
2023/02/22 10:40:51;;;;;;;8.30;4.10;;;;;;;17.39;53.97;100260.78;5093026;28;20052;-65
2023/02/22 10:43:20;;;;;;;9.03;4.33;;;;;;;17.41;54.21;100270.44;5092811;28;20146;-67
2023/02/22 10:45:52;;;;;;;8.70;4.28;;;;;;;17.41;54.24;100264.19;5092871;28;20050;-65
2023/02/22 10:48:29;;;;;;;9.80;4.65;;;;;;;17.40;54.21;100266.03;5092802;28;20116;-65
2023/02/22 10:51:00;;;;;;;8.27;4.00;;;;;;;17.40;54.33;100267.88;5092785;28;20385;-65
2023/02/22 10:53:29;;;;;;;6.90;3.78;;;;;;;17.40;54.33;100271.44;5092878;28;20405;-65
2023/02/22 10:56:12;;;;;;;6.43;3.60;;;;;;;17.39;54.28;100258.09;5092444;28;20048;-66
2023/02/22 10:58:47;;;;;;;7.03;3.78;;;;;;;17.39;54.17;100261.63;5092604;28;20044;-66
2023/02/22 11:01:26;;;;;;;6.72;4.10;;;;;;;17.39;54.28;100258.09;5092612;28;20165;-66
2023/02/22 11:04:07;;;;;;;6.95;3.67;;;;;;;17.39;54.16;100255.38;5092631;28;20040;-65
2023/02/22 11:06:36;;;;;;;7.10;4.05;;;;;;;17.38;54.10;100251.84;5092473;28;20055;-65
2023/02/22 11:09:10;;;;;;;7.88;4.15;;;;;;;17.37;54.33;100251.94;5092518;28;20048;-65
2023/02/22 11:11:41;;;;;;;7.18;3.60;;;;;;;17.37;54.10;100243.84;5092605;28;20047;-65
2023/02/22 11:14:10;;;;;;;8.50;4.25;;;;;;;17.36;54.50;100245.72;5092577;28;20474;-65
2023/02/22 11:16:42;;;;;;;7.07;3.80;;;;;;;17.36;54.34;100244.84;5092408;28;20040;-65
2023/02/22 11:19:21;;;;;;;8.30;4.10;;;;;;;17.34;54.47;100239.59;5092467;28;20096;-67
2023/02/22 11:21:53;;;;;;;8.98;4.35;;;;;;;17.39;54.25;100245.47;5092327;28;20566;-65
2023/02/22 11:24:25;;;;;;;8.25;4.05;;;;;;;17.39;54.19;100241.91;5092246;28;20074;-66
2023/02/22 11:27:02;;;;;;;7.22;3.63;;;;;;;17.39;54.32;100241.91;5092266;28;20575;-66
2023/02/22 11:29:32;;;;;;;8.07;3.42;;;;;;;17.36;54.50;100239.47;5092066;28;20048;-66
2023/02/22 11:32:04;;;;;;;6.93;3.88;;;;;;;17.40;54.39;100238.22;5092228;28;20123;-66
2023/02/22 11:34:36;;;;;;;7.20;4.10;;;;;;;17.40;54.37;100235.53;5092256;28;20050;-66
2023/02/22 11:37:30;;;;;;;6.95;3.63;;;;;;;17.41;54.55;100231.84;5091912;28;20052;-66
2023/02/22 11:40:10;;;;;;;5.78;3.58;;;;;;;17.39;54.32;100234.66;5091921;28;20051;-66
2023/02/22 11:42:39;;;;;;;7.30;3.95;;;;;;;17.39;54.38;100239.22;5091726;28;20055;-65
2023/02/22 11:45:10;;;;;;;7.65;3.95;;;;;;;17.40;54.39;100241.75;5091746;28;20039;-67